< < Back
Terminal Aerodrome Forecast


Current Version              Previous Versions:   1  2  3  4  5  6  7  8  9  

Terminal Aerodrome Forecast

901
FTUS42 KMLB 201100
TAFMCO
TAF
KMCO 201120Z 2012/2112 34009KT P6SM SCT009 BKN012 OVC025
     FM201500 34012KT P6SM BKN022 OVC030
     FM201900 34013KT P6SM BKN035
     FM210100 35009KT P6SM SCT035=



Latest METAR

304
SAUS70 KWBC 201300 RRA
MTRMCO
METAR KMCO 201253Z 35012KT 10SM OVC011 17/14 A3004 RMK AO2 SLP172
T01670139


USA.gov is the U.S. government's official web portal to all federal, state and local government web resources and services.